Walterboro, SC

11:42 PM EST on January 23, 2017 (GMT -0500)
Treetop Village | | Change Station

Elev 75 ft 32.90 °N, 80.67 °W | Updated 3 minutes ago

Clear
Clear
54.2 °F
Feels Like 54.2 °F
N
0.0
Wind Variable Wind from West

Today
High -- | Low -- °F
--% Chance of Precip.
Yesterday
High -- | Low -- °F
Precip. -- in
Pressure 29.56 in
Visibility 10.0 miles
Clouds Clear
Dew Point 52 °F
Humidity 93%
Rainfall 0.00 in
Snow Depth Not available.
7:22 AM 5:46 PM
Waning Crescent, 14% visible
METAR KRBW 240435Z AUTO 28007KT 10SM CLR 12/10 A2956 RMK AO2
Pressure 29.56 in
Visibility 10.0 miles
Clouds Clear
Dew Point 52 °F
Humidity 93%
Rainfall 0.00 in
Snow Depth Not available.
7:22 AM 5:46 PM
Waning Crescent, 14% visible
METAR KRBW 240435Z AUTO 28007KT 10SM CLR 12/10 A2956 RMK AO2

Get Your Daily Forecast Email!

Thanks for signing up!

Be on the lookout for a verification email in your inbox.

You'll start receiving the daily forecast at 8 AM.

×

10-Day Weather Forecast

Almanac

Astronomy

Jan. 23, 2017 Rise Set
Actual Time
Civil Twilight
Nautical Twilight
Astronomical Twilight
Moon
Length of Visible Light
Length of Day
Tomorrow will be .
, % of the Moon is Illuminated

Today's Extremes

State Highs State Lows

Community

WunderPhotos

Upload Photos

1,962,540 photos uploaded!

WunderBlog® & News

Nearby

Air Quality

  Air Quality AQ Index Pollutant
Not available.

Snow Depth

Station Depth Elevation

Earthquake Activity

City Distance Mag. Time & Date
Minimum magnitude displayed is 2.5.

Coastal Water Temperatures

Place Temperature

Stations

Nearby Weather Stations

Station Location Temp. Windchill Dew Point Humidity Wind Precip. Elev Updated Type
                   

Watches & Warnings

Flood Warning
Issued: 8:27 PM EST Jan. 23, 2017 – National Weather Service

The National Weather Service in Charleston has issued a

* Flood Warning for
the edisto river near Givhans Ferry.
* From late Tuesday night until further notice.
* At 7 PM Monday the stage was 9.0 feet.
* Flood stage is 10.0 feet.
* Minor flooding is forecast.
* Forecast, rise above flood stage by early Wednesday morning and
continue to rise to near 11.0 feet by Thursday evening. Additional
rises are possible thereafter.
* At 11.0 feet, Weeks Landing in Canadys is not accessible.


Lat... Lon 3304 8065 3311 8062 3308 8036 3275 8036
          3275 8050 3302 8044




Small Craft Advisory
Issued: 9:02 PM EST Jan. 23, 2017 – National Weather Service

... Small Craft Advisory remains in effect until 10 am EST
Tuesday...

* impacts... wind and or wave conditions will be hazardous to
small craft.

Precautionary/preparedness actions...

During a Small Craft Advisory... inexperienced mariners...
especially those operating smaller vessels... should avoid
navigating in hazardous conditions.